KSVN

Hunter AAF Airport

Savannah, Georgia, USA
METAR KSVN 160208Z AUTO 00000KT 10SM -RA BKN040 15/13 A3000 RMK AO2 RAB08 SLP162 FZRANO $
Observed Flight Rules
Dec-16 @ 02:08 UTC (22 minutes ago) Visual Flight Rules
Visibility Clouds Conditions
10 miles
  • Broken at 4,000' AGL
  • Light Rain
Temperatures Readings
Current 15°C / 59°F
Dewpoint 13°C / 55°F
Humidity 88%
Altimeter 30" Hg
Pressure 1016.2 hPa
Elevation 13
METAR KSVN 160208Z AUTO 00000KT 10SM -RA BKN040 15/13 A3000 RMK AO2 RAB08 SLP162 FZRANO $
Observed Flight Rules
Dec-16 @ 02:08 UTC
(22 minutes ago)
VFR
Clouds
  • Broken at 4,000' AGL
Conditions
  • Light Rain
Temperature Dewpoint
15°C / 59°F 13°C / 55°F
Humidity Altimeter Pressure
88% 30" Hg 1016.2 hPa